Terminal Aerodrome Forecast
Issued by NWS Wichita, KS

Home | Current Version | Previous Version | Text Only | Print | Product List | Glossary Off
Versions: 1 2 3 4 5 6 7 8 9 10 11 12 13 14 15 16 17

000
FTUS43 KICT 270520
TAFICT
TAF
KICT 270520Z 2706/2806 15008KT P6SM SCT250
     FM271000 17010KT P6SM SCT250
     FM271600 18016G22KT P6SM SCT040
     FM271900 18020G26KT P6SM SCT040
     FM280100 17014KT P6SM BKN150=

USA.gov is the U.S. government's official web portal to all federal, state and local government web resources and services.